Time;durP1;ratioP1;P1;durP2;ratioP2;P2;SDS_P1;SDS_P2;PMS_P1;PMS_P2;Temp;Humidity;BMP_temperature;BMP_pressure;BME280_temperature;BME280_humidity;BME280_pressure;Samples;Min_cycle;Max_cycle;Signal;HPM_P1;HPM_P2
2023/01/04 00:01:23;;;;;;;1.20;0.10;;;11.40;99.90;;;;;;4987387;28;20387;-58
2023/01/04 00:03:50;;;;;;;1.25;0.30;;;11.40;99.90;;;;;;4974979;28;20043;-58
2023/01/04 00:06:19;;;;;;;0.35;0.10;;;11.40;99.90;;;;;;4986413;28;20038;-59
2023/01/04 00:08:47;;;;;;;0.43;0.20;;;11.40;99.90;;;;;;4988691;28;20050;-58
2023/01/04 00:11:18;;;;;;;1.58;0.20;;;11.40;99.90;;;;;;4988173;28;20042;-58
2023/01/04 00:13:47;;;;;;;1.08;0.20;;;11.50;99.90;;;;;;4976258;28;20038;-58
2023/01/04 00:16:18;;;;;;;2.83;0.17;;;11.50;99.90;;;;;;4987035;28;20050;-58
2023/01/04 00:18:46;;;;;;;0.10;0.08;;;11.50;99.90;;;;;;4988413;28;20062;-58
2023/01/04 00:21:16;;;;;;;0.40;0.20;;;11.50;99.90;;;;;;4988455;28;20042;-59
2023/01/04 00:23:47;;;;;;;1.88;0.20;;;11.50;99.90;;;;;;4992523;28;20228;-61
2023/01/04 00:26:20;;;;;;;1.98;0.35;;;11.50;99.90;;;;;;4988544;28;20042;-60
2023/01/04 00:28:53;;;;;;;0.57;0.10;;;11.50;99.90;;;;;;4989118;28;20046;-59
2023/01/04 00:31:22;;;;;;;0.90;0.10;;;11.50;99.90;;;;;;4989898;28;20050;-60
2023/01/04 00:33:54;;;;;;;1.48;0.30;;;11.50;99.90;;;;;;4989096;28;20486;-58
2023/01/04 00:36:22;;;;;;;0.40;0.00;;;11.50;99.90;;;;;;4987834;28;20053;-61
2023/01/04 00:39:05;;;;;;;0.25;0.05;;;11.50;99.90;;;;;;4988518;28;20046;-58
2023/01/04 00:41:38;;;;;;;1.25;0.25;;;11.50;99.90;;;;;;4970280;28;20050;-59
2023/01/04 00:44:27;;;;;;;1.20;0.82;;;11.60;99.90;;;;;;4989818;28;20042;-58
2023/01/04 00:46:55;;;;;;;0.45;0.13;;;11.60;99.90;;;;;;4984369;28;20042;-58
2023/01/04 00:49:23;;;;;;;2.28;0.10;;;11.60;99.90;;;;;;4989911;28;20054;-58
2023/01/04 00:51:51;;;;;;;0.52;0.00;;;11.60;99.90;;;;;;4988825;28;20050;-57
2023/01/04 00:54:20;;;;;;;0.00;0.00;;;11.60;99.90;;;;;;4991604;28;20046;-58
2023/01/04 00:56:48;;;;;;;0.00;0.00;;;11.60;99.90;;;;;;4989434;28;20034;-58
2023/01/04 00:59:18;;;;;;;0.80;0.10;;;11.60;99.90;;;;;;4980422;28;20038;-58
2023/01/04 01:01:46;;;;;;;;;;;11.70;99.90;;;;;;4982924;28;20043;-59
2023/01/04 01:04:15;;;;;;;0.40;0.10;;;11.70;99.90;;;;;;4976888;28;19955;-58
2023/01/04 01:06:42;;;;;;;0.10;0.10;;;11.70;99.90;;;;;;4986562;28;20046;-59
2023/01/04 01:09:11;;;;;;;1.75;0.30;;;11.70;99.90;;;;;;4986735;28;20491;-61
2023/01/04 01:11:39;;;;;;;0.47;0.00;;;11.70;99.90;;;;;;4988766;28;20042;-60
2023/01/04 01:14:08;;;;;;;0.90;0.00;;;11.70;99.90;;;;;;4989631;28;20062;-58
2023/01/04 01:16:37;;;;;;;0.10;0.10;;;11.70;99.90;;;;;;4988968;28;20515;-59
2023/01/04 01:19:22;;;;;;;0.15;0.00;;;11.70;99.90;;;;;;4981354;28;20042;-59
2023/01/04 01:21:50;;;;;;;0.70;0.00;;;11.70;99.90;;;;;;4989919;28;20047;-58
2023/01/04 01:24:19;;;;;;;2.08;0.10;;;11.70;99.90;;;;;;4988661;28;20525;-59
2023/01/04 01:26:46;;;;;;;0.00;0.00;;;11.70;99.90;;;;;;4986747;28;20058;-58
2023/01/04 01:29:14;;;;;;;1.45;0.20;;;11.70;99.90;;;;;;5018818;28;20042;-59
2023/01/04 01:31:42;;;;;;;0.98;0.00;;;11.70;99.90;;;;;;4988952;28;20046;-58
2023/01/04 01:34:10;;;;;;;0.10;0.05;;;11.70;99.90;;;;;;4988710;28;20049;-59
2023/01/04 01:36:37;;;;;;;1.02;0.00;;;11.80;99.90;;;;;;4988588;28;20101;-58
2023/01/04 01:39:06;;;;;;;0.20;0.08;;;11.70;99.90;;;;;;4988011;28;20054;-58
2023/01/04 01:41:35;;;;;;;1.00;0.10;;;11.80;99.90;;;;;;4989437;28;20061;-59
2023/01/04 01:44:44;;;;;;;0.20;0.00;;;11.80;99.90;;;;;;4986535;28;20050;-58
2023/01/04 01:47:16;;;;;;;0.45;0.15;;;11.80;99.90;;;;;;4988608;28;20042;-59
2023/01/04 01:49:46;;;;;;;0.10;0.08;;;11.80;99.90;;;;;;4986335;28;20057;-58
2023/01/04 01:52:20;;;;;;;0.45;0.05;;;11.80;99.90;;;;;;4986103;28;20050;-58
2023/01/04 01:54:54;;;;;;;0.00;0.00;;;11.90;99.90;;;;;;4990840;28;20050;-57
2023/01/04 01:57:26;;;;;;;0.10;0.10;;;11.90;99.90;;;;;;4993124;28;20057;-59
2023/01/04 01:59:58;;;;;;;1.17;0.10;;;11.90;99.90;;;;;;4992092;28;20054;-58
2023/01/04 02:02:26;;;;;;;0.00;0.00;;;11.80;99.90;;;;;;5004845;28;20043;-59
2023/01/04 02:04:55;;;;;;;0.20;0.10;;;11.80;99.90;;;;;;4999128;28;21786;-57
2023/01/04 02:07:26;;;;;;;0.00;0.00;;;11.80;99.90;;;;;;4992726;28;20054;-57
2023/01/04 02:09:55;;;;;;;2.05;0.10;;;11.70;99.90;;;;;;5005757;28;20057;-56
2023/01/04 02:12:22;;;;;;;0.65;0.20;;;11.70;99.90;;;;;;4990685;28;20050;-59
2023/01/04 02:14:51;;;;;;;0.03;0.03;;;12.40;99.90;;;;;;5021854;28;20038;-63
2023/01/04 02:17:21;;;;;;;0.15;0.13;;;11.70;99.90;;;;;;4990693;28;20050;-61
2023/01/04 02:19:52;;;;;;;0.10;0.10;;;11.70;99.90;;;;;;4992572;28;20051;-63
2023/01/04 02:22:25;;;;;;;1.95;0.10;;;11.70;99.90;;;;;;4993346;28;20043;-57
2023/01/04 02:25:07;;;;;;;0.05;0.00;;;11.60;99.90;;;;;;4989937;28;20054;-59
2023/01/04 02:27:43;;;;;;;0.22;0.22;;;11.60;99.90;;;;;;4991618;28;20387;-58
2023/01/04 02:30:31;;;;;;;0.10;0.08;;;11.60;99.90;;;;;;4990049;28;20544;-58
2023/01/04 02:33:11;;;;;;;0.00;0.00;;;11.60;99.90;;;;;;4993192;28;20062;-59
2023/01/04 02:36:13;;;;;;;0.13;0.10;;;11.60;99.90;;;;;;4992641;28;20124;-58
2023/01/04 02:39:08;;;;;;;0.05;0.05;;;11.60;99.90;;;;;;4989831;28;20656;-57
2023/01/04 02:42:02;;;;;;;0.32;0.10;;;11.60;99.90;;;;;;4987425;28;20053;-57
2023/01/04 02:44:52;;;;;;;1.55;0.08;;;11.60;99.90;;;;;;4992677;28;20042;-58
2023/01/04 02:50:49;;;;;;;0.90;0.10;;;11.60;99.90;;;;;;4997673;28;20050;-58
2023/01/04 02:53:38;;;;;;;0.65;0.10;;;11.60;99.90;;;;;;4993511;28;20050;-58
2023/01/04 02:56:37;;;;;;;0.00;0.00;;;11.60;99.90;;;;;;4987078;28;20046;-58
2023/01/04 02:59:29;;;;;;;0.10;0.00;;;11.60;99.90;;;;;;4991187;28;20057;-58
2023/01/04 03:08:35;;;;;;;1.02;0.10;;;11.70;99.90;;;;;;4993553;28;20038;-59
2023/01/04 03:14:19;;;;;;;0.65;0.00;;;11.70;99.90;;;;;;4986362;28;20491;-58
2023/01/04 03:17:03;;;;;;;0.35;0.05;;;11.70;99.90;;;;;;4985621;28;20453;-58
2023/01/04 03:19:53;;;;;;;2.55;0.00;;;11.70;99.90;;;;;;4993158;28;20050;-59
2023/01/04 03:37:42;;;;;;;0.10;0.00;;;11.90;99.90;;;;;;4990820;28;20508;-59
2023/01/04 03:49:34;;;;;;;1.05;0.10;;;11.90;99.90;;;;;;4991707;28;20039;-58
2023/01/04 03:52:04;;;;;;;1.30;0.15;;;11.90;99.90;;;;;;4991891;28;20508;-58
2023/01/04 03:54:33;;;;;;;;;;;12.00;99.90;;;;;;4991091;28;20051;-57
2023/01/04 03:57:03;;;;;;;0.65;0.45;;;11.90;99.90;;;;;;4991792;28;19926;-58
2023/01/04 03:59:40;;;;;;;0.05;0.05;;;11.90;99.90;;;;;;4991435;28;20054;-58
2023/01/04 04:02:12;;;;;;;2.42;0.30;;;11.90;99.90;;;;;;4991483;28;20486;-58
2023/01/04 04:10:14;;;;;;;4.78;0.32;;;11.80;99.90;;;;;;4992067;28;20053;-59
2023/01/04 04:12:42;;;;;;;1.92;0.20;;;11.80;99.90;;;;;;4992667;28;20552;-59
2023/01/04 04:15:10;;;;;;;2.17;0.20;;;11.80;99.90;;;;;;4989302;28;20272;-59
2023/01/04 04:17:37;;;;;;;3.38;0.40;;;11.70;99.90;;;;;;4992146;28;20042;-58
2023/01/04 04:20:06;;;;;;;3.92;1.27;;;12.30;99.90;;;;;;4992057;28;20524;-59
2023/01/04 04:22:34;;;;;;;1.52;0.50;;;;;;;;;;4994488;28;20047;-59
2023/01/04 04:25:01;;;;;;;3.28;0.50;;;11.70;99.90;;;;;;4994540;28;20050;-58
2023/01/04 04:27:29;;;;;;;2.47;0.30;;;11.70;99.90;;;;;;4990771;28;20046;-59
2023/01/04 04:29:57;;;;;;;2.63;0.43;;;11.60;99.90;;;;;;4988042;28;20046;-58
2023/01/04 04:32:24;;;;;;;2.35;0.47;;;11.60;99.90;;;;;;4992223;28;20061;-58
2023/01/04 04:34:52;;;;;;;3.80;0.65;;;11.60;99.90;;;;;;4991434;28;20054;-59
2023/01/04 04:37:20;;;;;;;4.78;0.82;;;11.50;99.90;;;;;;4990175;28;20038;-58
2023/01/04 04:39:47;;;;;;;5.45;0.65;;;11.50;99.90;;;;;;4991342;28;20053;-62
2023/01/04 04:42:15;;;;;;;3.90;0.57;;;11.40;99.90;;;;;;4989034;28;20046;-58
2023/01/04 04:44:43;;;;;;;5.03;1.10;;;11.40;99.90;;;;;;4990888;28;20050;-58
2023/01/04 04:47:10;;;;;;;6.40;0.82;;;11.30;99.90;;;;;;4990568;28;20053;-58
2023/01/04 04:49:38;;;;;;;8.50;0.93;;;11.20;99.90;;;;;;4990963;28;20049;-59
2023/01/04 04:52:05;;;;;;;8.48;0.85;;;11.20;99.90;;;;;;4990723;28;20042;-58
2023/01/04 04:54:33;;;;;;;8.82;0.85;;;11.10;99.90;;;;;;4999866;28;20043;-58
2023/01/04 04:57:01;;;;;;;6.53;1.40;;;11.10;99.90;;;;;;4991239;28;20073;-58
2023/01/04 04:59:28;;;;;;;4.28;0.70;;;11.00;99.90;;;;;;4990753;28;20054;-59
2023/01/04 05:01:56;;;;;;;8.02;0.93;;;10.90;99.90;;;;;;4989898;28;20049;-58
2023/01/04 05:04:24;;;;;;;11.27;1.60;;;10.90;99.90;;;;;;4987983;28;20050;-59
2023/01/04 05:06:51;;;;;;;11.80;2.78;;;10.80;99.90;;;;;;4991018;28;20073;-59
2023/01/04 05:09:19;;;;;;;6.25;1.85;;;10.80;99.90;;;;;;4991254;28;20046;-59
2023/01/04 05:14:33;;;;;;;14.38;1.23;;;10.70;99.90;;;;;;4988138;28;20130;-58
2023/01/04 05:17:00;;;;;;;11.48;1.20;;;10.60;99.90;;;;;;4988831;28;20038;-59
2023/01/04 05:19:28;;;;;;;11.82;1.52;;;10.60;99.90;;;;;;4990804;28;20050;-59
2023/01/04 05:21:56;;;;;;;12.68;1.55;;;10.60;99.90;;;;;;4990160;28;20042;-59
2023/01/04 05:24:23;;;;;;;13.00;1.30;;;10.50;99.90;;;;;;5004295;28;20494;-58
2023/01/04 05:26:51;;;;;;;14.68;1.48;;;10.50;99.90;;;;;;5019404;28;20042;-59
2023/01/04 05:32:05;;;;;;;12.13;2.35;;;10.50;99.90;;;;;;4994264;28;20053;-58
2023/01/04 05:34:32;;;;;;;13.05;2.20;;;10.50;99.90;;;;;;4995463;28;20054;-59
2023/01/04 05:37:00;;;;;;;16.23;1.80;;;10.50;99.90;;;;;;4993817;28;20046;-59
2023/01/04 05:39:29;;;;;;;22.63;3.65;;;;;;;;;;4994227;28;20490;-59
2023/01/04 05:44:43;;;;;;;22.20;2.40;;;10.60;99.90;;;;;;4994575;28;20520;-59
2023/01/04 05:47:11;;;;;;;18.02;3.15;;;10.60;99.90;;;;;;4989065;28;20049;-59
2023/01/04 05:49:42;;;;;;;20.65;2.72;;;10.60;99.90;;;;;;4971479;28;20050;-59
2023/01/04 05:52:10;;;;;;;20.40;3.53;;;10.70;99.90;;;;;;4987751;28;20394;-59
2023/01/04 05:54:38;;;;;;;17.85;2.40;;;10.70;99.90;;;;;;4990326;28;20400;-58
2023/01/04 05:57:06;;;;;;;23.30;4.55;;;10.80;99.90;;;;;;4990762;28;20042;-58
2023/01/04 05:59:34;;;;;;;21.92;3.33;;;10.80;99.90;;;;;;4990363;28;20050;-57
2023/01/04 06:02:26;;;;;;;22.20;2.63;;;10.80;99.90;;;;;;4986232;28;20209;-58
2023/01/04 06:04:55;;;;;;;19.63;2.90;;;10.80;99.90;;;;;;4989445;28;20128;-60
2023/01/04 06:07:29;;;;;;;18.77;3.38;;;10.70;99.90;;;;;;4991758;28;20421;-60
2023/01/04 06:09:56;;;;;;;21.25;2.83;;;10.70;99.90;;;;;;4986958;28;20061;-61
2023/01/04 06:12:24;;;;;;;19.08;2.53;;;10.80;99.90;;;;;;4991207;28;20154;-59
2023/01/04 06:14:52;;;;;;;29.58;3.22;;;10.90;99.90;;;;;;4989674;28;20042;-58
2023/01/04 06:17:19;;;;;;;24.17;2.35;;;10.90;99.90;;;;;;4989030;28;20046;-62
2023/01/04 06:19:47;;;;;;;22.02;3.60;;;10.90;99.90;;;;;;5004074;28;20046;-59
2023/01/04 06:22:15;;;;;;;32.47;3.67;;;11.00;99.90;;;;;;4987058;28;20046;-58
2023/01/04 06:24:43;;;;;;;24.83;3.50;;;11.00;99.90;;;;;;4986602;28;20042;-62
2023/01/04 06:27:11;;;;;;;19.88;2.85;;;11.00;99.90;;;;;;4988705;28;20402;-59
2023/01/04 06:29:39;;;;;;;24.73;3.80;;;11.00;99.90;;;;;;4989295;28;20050;-58
2023/01/04 06:32:06;;;;;;;18.00;3.03;;;11.00;99.90;;;;;;4987113;28;20501;-59
2023/01/04 06:34:34;;;;;;;18.73;3.05;;;11.00;99.90;;;;;;4987498;28;20058;-63
2023/01/04 06:37:02;;;;;;;28.73;3.45;;;11.10;99.90;;;;;;4989434;28;20045;-61
2023/01/04 06:39:30;;;;;;;28.42;4.93;;;11.10;99.90;;;;;;4990918;28;20050;-60
2023/01/04 06:41:57;;;;;;;22.75;3.75;;;11.10;99.90;;;;;;4991717;28;20055;-60
2023/01/04 06:44:33;;;;;;;20.65;3.03;;;11.10;99.90;;;;;;4991478;28;20046;-59
2023/01/04 06:47:01;;;;;;;26.52;3.95;;;11.00;99.90;;;;;;4990314;28;20045;-58
2023/01/04 06:49:28;;;;;;;21.50;3.55;;;11.00;99.90;;;;;;4991959;28;20050;-60
2023/01/04 06:51:56;;;;;;;23.20;2.95;;;11.00;99.90;;;;;;4987632;28;20035;-59
2023/01/04 06:54:24;;;;;;;18.30;3.25;;;10.90;99.90;;;;;;4987351;28;20357;-60
2023/01/04 06:56:54;;;;;;;31.98;3.65;;;10.90;99.90;;;;;;5019073;28;20046;-60
2023/01/04 06:59:22;;;;;;;28.70;3.50;;;10.80;99.90;;;;;;4987934;28;20054;-62
2023/01/04 07:01:50;;;;;;;29.45;4.65;;;10.80;99.90;;;;;;4989197;28;20066;-60
2023/01/04 07:04:18;;;;;;;26.92;3.03;;;;;;;;;;4986161;28;20062;-60
2023/01/04 07:06:45;;;;;;;27.65;3.38;;;10.80;99.90;;;;;;4976239;28;20046;-60
2023/01/04 07:09:13;;;;;;;25.08;3.65;;;10.70;99.90;;;;;;4988552;28;20375;-64
2023/01/04 07:11:41;;;;;;;22.42;3.00;;;10.70;99.90;;;;;;4991945;28;20054;-62
2023/01/04 07:14:08;;;;;;;24.48;2.58;;;10.70;99.90;;;;;;4989050;28;20046;-60
2023/01/04 07:16:36;;;;;;;23.17;3.03;;;10.80;99.90;;;;;;5021475;28;20054;-60
2023/01/04 07:19:04;;;;;;;20.75;2.97;;;10.70;99.90;;;;;;4991712;28;20070;-58
2023/01/04 07:21:31;;;;;;;13.45;2.97;;;10.70;99.90;;;;;;4991263;28;20062;-58
2023/01/04 07:23:59;;;;;;;16.02;2.55;;;;;;;;;;4992250;28;20054;-58
2023/01/04 07:26:27;;;;;;;17.33;2.38;;;10.70;99.90;;;;;;4990837;28;20053;-58
2023/01/04 07:31:42;;;;;;;10.23;1.85;;;10.60;99.90;;;;;;4990832;28;20053;-63
2023/01/04 07:34:10;;;;;;;18.45;2.78;;;10.60;99.90;;;;;;4990742;28;20053;-63
2023/01/04 07:36:38;;;;;;;18.27;2.25;;;10.60;99.90;;;;;;4988825;28;20201;-59
2023/01/04 07:39:09;;;;;;;17.55;1.83;;;10.60;99.90;;;;;;4988362;28;20054;-64
2023/01/04 07:41:41;;;;;;;7.20;1.52;;;10.50;99.90;;;;;;4991373;28;20466;-63
2023/01/04 07:44:10;;;;;;;10.48;1.65;;;10.50;99.90;;;;;;4993871;28;20478;-64
2023/01/04 07:46:38;;;;;;;9.73;2.60;;;10.50;99.90;;;;;;4989639;28;20061;-64
2023/01/04 07:49:11;;;;;;;9.68;1.67;;;10.50;99.90;;;;;;4990217;28;20050;-65
2023/01/04 07:51:46;;;;;;;8.45;1.30;;;10.50;99.90;;;;;;5002551;28;20050;-64
2023/01/04 07:54:17;;;;;;;14.18;1.45;;;10.50;99.90;;;;;;4986427;28;20043;-56
2023/01/04 07:56:46;;;;;;;13.80;1.58;;;10.50;99.90;;;;;;4987841;28;20046;-58
2023/01/04 07:59:15;;;;;;;8.45;1.23;;;10.40;99.90;;;;;;4988311;28;20042;-59
2023/01/04 08:01:43;;;;;;;11.67;1.70;;;10.40;99.90;;;;;;4986037;28;20042;-58
2023/01/04 08:04:12;;;;;;;11.95;2.55;;;10.40;99.90;;;;;;4990404;28;20046;-57
2023/01/04 08:06:41;;;;;;;5.07;1.23;;;10.30;99.90;;;;;;4977746;28;20050;-56
2023/01/04 08:09:10;;;;;;;12.30;1.10;;;10.30;99.90;;;;;;4984132;28;20049;-58
2023/01/04 08:11:38;;;;;;;13.95;1.58;;;10.30;99.90;;;;;;4990794;28;20046;-58
2023/01/04 08:14:06;;;;;;;14.68;1.35;;;10.30;99.90;;;;;;4987389;28;20046;-58
2023/01/04 08:16:36;;;;;;;9.90;1.17;;;10.20;99.90;;;;;;4989877;28;20046;-58
2023/01/04 08:19:16;;;;;;;10.32;1.45;;;10.20;99.90;;;;;;4990774;28;20042;-60
2023/01/04 08:21:44;;;;;;;15.35;2.53;;;10.20;99.90;;;;;;4987780;28;20057;-59
2023/01/04 08:24:14;;;;;;;9.15;1.27;;;10.30;99.90;;;;;;4988767;28;20042;-57
2023/01/04 08:26:42;;;;;;;10.90;2.47;;;10.30;99.90;;;;;;5004795;28;20065;-57
2023/01/04 08:29:10;;;;;;;13.38;1.88;;;10.30;99.90;;;;;;4989145;28;20046;-58
2023/01/04 08:31:39;;;;;;;9.75;1.52;;;10.30;99.90;;;;;;4988952;28;20043;-58
2023/01/04 08:34:09;;;;;;;15.23;2.78;;;10.30;99.90;;;;;;4994573;28;20513;-61
2023/01/04 08:36:52;;;;;;;16.58;3.38;;;10.30;99.90;;;;;;4977650;28;20035;-60
2023/01/04 08:39:20;;;;;;;8.15;1.45;;;10.40;99.90;;;;;;4989161;28;20053;-59
2023/01/04 08:41:52;;;;;;;10.15;2.00;;;10.30;99.90;;;;;;4988825;28;20046;-57
2023/01/04 08:44:27;;;;;;;14.40;2.47;;;10.30;99.90;;;;;;4996062;28;20054;-59
2023/01/04 08:46:55;;;;;;;15.48;2.35;;;10.30;99.90;;;;;;4989376;28;20066;-60
2023/01/04 08:49:23;;;;;;;17.77;2.30;;;10.30;99.90;;;;;;4988242;28;20039;-61
2023/01/04 08:51:51;;;;;;;20.42;2.22;;;10.30;99.90;;;;;;4988988;28;20077;-58
2023/01/04 08:54:18;;;;;;;13.50;3.00;;;10.40;99.90;;;;;;4989050;28;20034;-57
2023/01/04 08:56:46;;;;;;;19.77;2.20;;;10.40;99.90;;;;;;4989432;28;20061;-57
2023/01/04 08:59:14;;;;;;;14.98;1.75;;;10.40;99.90;;;;;;4997920;28;20039;-58
2023/01/04 09:01:41;;;;;;;23.23;2.90;;;10.40;99.90;;;;;;4984987;28;20065;-58
2023/01/04 09:04:09;;;;;;;21.77;2.67;;;10.40;99.90;;;;;;4990761;28;20046;-58
2023/01/04 09:06:38;;;;;;;16.58;2.33;;;10.40;99.90;;;;;;4975194;28;20054;-58
2023/01/04 09:09:05;;;;;;;15.68;2.47;;;10.50;99.90;;;;;;4988791;28;20490;-58
2023/01/04 09:11:34;;;;;;;16.75;1.92;;;10.50;99.90;;;;;;4983306;28;20053;-58
2023/01/04 09:14:02;;;;;;;21.73;3.50;;;10.50;99.90;;;;;;4987121;28;20624;-59
2023/01/04 09:16:36;;;;;;;13.90;2.45;;;10.50;99.90;;;;;;4986073;28;20047;-59
2023/01/04 09:19:05;;;;;;;28.27;4.45;;;10.50;99.90;;;;;;4988318;28;20058;-60
2023/01/04 09:21:33;;;;;;;25.55;2.40;;;10.50;99.90;;;;;;4986731;28;20062;-59
2023/01/04 09:24:01;;;;;;;16.13;3.47;;;10.50;99.90;;;;;;4978657;28;20046;-59
2023/01/04 09:26:29;;;;;;;27.95;3.58;;;10.50;99.90;;;;;;5001445;28;20058;-57
2023/01/04 09:28:56;;;;;;;21.25;3.30;;;10.50;99.90;;;;;;4985800;28;20069;-57
2023/01/04 09:31:26;;;;;;;21.75;2.40;;;10.50;99.90;;;;;;4987269;28;20050;-59
2023/01/04 09:33:55;;;;;;;19.17;2.70;;;10.50;99.90;;;;;;4993731;28;20398;-58
2023/01/04 09:36:44;;;;;;;27.80;3.38;;;10.60;99.90;;;;;;4999393;28;20604;-58
2023/01/04 09:39:12;;;;;;;24.50;3.60;;;10.60;99.90;;;;;;4982888;28;20043;-58
2023/01/04 09:42:02;;;;;;;28.92;3.50;;;10.60;99.90;;;;;;4993908;28;20046;-61
2023/01/04 09:44:36;;;;;;;19.85;3.53;;;10.70;99.90;;;;;;4989851;28;20038;-63
2023/01/04 09:47:24;;;;;;;22.90;2.78;;;10.70;99.90;;;;;;4993014;28;20054;-62
2023/01/04 09:50:02;;;;;;;17.98;2.38;;;10.70;99.90;;;;;;4989240;28;20065;-63
2023/01/04 09:52:46;;;;;;;29.27;3.33;;;10.70;99.90;;;;;;4987932;28;20633;-64
2023/01/04 09:55:28;;;;;;;16.27;2.38;;;10.80;99.90;;;;;;4988193;28;20046;-64
2023/01/04 09:58:12;;;;;;;20.00;3.10;;;10.80;99.90;;;;;;4995322;28;20057;-59
2023/01/04 10:00:45;;;;;;;23.13;3.15;;;10.90;99.90;;;;;;4970203;28;20046;-58
2023/01/04 10:03:49;;;;;;;23.73;3.22;;;10.90;99.90;;;;;;4981074;28;20069;-58
2023/01/04 10:06:17;;;;;;;25.85;3.83;;;10.90;99.90;;;;;;4976653;28;20511;-60
2023/01/04 10:08:44;;;;;;;18.38;2.60;;;10.90;99.90;;;;;;4983434;28;20057;-63
2023/01/04 10:11:15;;;;;;;17.33;2.67;;;11.00;99.90;;;;;;4989233;28;20050;-58
2023/01/04 10:13:48;;;;;;;24.08;3.25;;;11.00;99.90;;;;;;4998092;28;20050;-59
2023/01/04 10:16:52;;;;;;;22.50;3.80;;;11.00;99.90;;;;;;5012622;28;20046;-60
2023/01/04 10:20:07;;;;;;;16.52;3.40;;;11.10;99.90;;;;;;4989799;28;20050;-59
2023/01/04 10:23:13;;;;;;;23.48;3.38;;;11.00;99.90;;;;;;4993397;28;20034;-59
2023/01/04 10:26:00;;;;;;;25.08;3.58;;;11.10;99.90;;;;;;4993119;28;20057;-59
2023/01/04 10:29:09;;;;;;;26.25;3.40;;;11.10;99.90;;;;;;4991700;28;20059;-58
2023/01/04 10:31:47;;;;;;;26.48;3.50;;;11.10;99.90;;;;;;4991829;28;20072;-59
2023/01/04 10:34:23;;;;;;;25.13;3.55;;;11.10;99.90;;;;;;5001560;28;20398;-58
2023/01/04 10:37:13;;;;;;;28.38;3.28;;;11.20;99.90;;;;;;5011352;28;20049;-58
2023/01/04 10:39:42;;;;;;;24.38;3.42;;;11.20;99.90;;;;;;4987610;28;20042;-60
2023/01/04 10:42:33;;;;;;;25.50;4.10;;;11.20;99.90;;;;;;5023591;28;20054;-58
2023/01/04 10:45:26;;;;;;;23.95;4.85;;;11.20;99.90;;;;;;4990056;28;20057;-58
2023/01/04 10:48:07;;;;;;;33.17;3.63;;;11.30;99.90;;;;;;4977513;28;20038;-59
2023/01/04 10:50:40;;;;;;;28.80;3.47;;;11.30;99.90;;;;;;4984532;28;20502;-57
2023/01/04 10:53:17;;;;;;;26.23;3.85;;;11.30;99.90;;;;;;4990339;28;20042;-58
2023/01/04 10:55:44;;;;;;;33.33;3.75;;;11.30;99.90;;;;;;4991969;28;20046;-58
2023/01/04 10:59:12;;;;;;;20.38;3.78;;;11.30;99.90;;;;;;4984678;28;20391;-59
2023/01/04 11:01:46;;;;;;;23.92;3.85;;;11.30;99.90;;;;;;4991559;28;20057;-60
2023/01/04 11:04:19;;;;;;;23.25;3.33;;;11.30;99.90;;;;;;4998562;28;20509;-61
2023/01/04 11:07:01;;;;;;;19.40;3.83;;;11.30;99.90;;;;;;4991061;28;20046;-57
2023/01/04 11:10:00;;;;;;;20.65;3.45;;;11.40;99.90;;;;;;4990252;28;20406;-63
2023/01/04 11:12:28;;;;;;;32.00;4.03;;;11.40;99.90;;;;;;4993108;28;20687;-60
2023/01/04 11:14:55;;;;;;;25.10;3.83;;;11.50;99.90;;;;;;4991098;28;20039;-61
2023/01/04 11:17:24;;;;;;;25.17;4.35;;;11.60;99.90;;;;;;4990879;28;20047;-59
2023/01/04 11:19:52;;;;;;;19.60;3.03;;;11.70;99.90;;;;;;4991763;28;20043;-58
2023/01/04 11:22:37;;;;;;;20.63;3.80;;;11.70;99.90;;;;;;4990700;28;20043;-63
2023/01/04 11:25:11;;;;;;;27.42;3.95;;;11.80;99.90;;;;;;4990630;28;20061;-61
2023/01/04 11:28:14;;;;;;;25.67;3.47;;;11.80;99.90;;;;;;4990246;28;20050;-63
2023/01/04 11:31:09;;;;;;;14.68;3.70;;;11.90;99.90;;;;;;4991428;28;20513;-58
2023/01/04 11:33:58;;;;;;;18.75;2.90;;;12.00;99.90;;;;;;4998093;28;20557;-57
2023/01/04 11:36:37;;;;;;;14.20;2.25;;;12.10;99.90;;;;;;4977098;28;20498;-58
2023/01/04 11:39:18;;;;;;;17.00;3.17;;;12.10;99.90;;;;;;4988239;28;20058;-58
2023/01/04 11:41:56;;;;;;;;;;;12.10;99.90;;;;;;4992126;28;20525;-59
2023/01/04 11:44:34;;;;;;;18.27;2.85;;;12.20;99.90;;;;;;4990934;28;19928;-58
2023/01/04 11:47:06;;;;;;;;;;;12.20;99.90;;;;;;4990998;28;20058;-58
2023/01/04 11:49:35;;;;;;;19.38;2.15;;;12.20;99.90;;;;;;4977344;28;19926;-58
2023/01/04 11:52:05;;;;;;;21.17;2.63;;;12.20;99.90;;;;;;4991082;28;20418;-57
2023/01/04 11:54:32;;;;;;;18.23;2.47;;;12.30;99.90;;;;;;4980007;28;20051;-58
2023/01/04 11:57:19;;;;;;;23.35;3.03;;;12.30;99.90;;;;;;4985219;28;20537;-58
2023/01/04 12:00:08;;;;;;;17.25;2.20;;;12.40;99.90;;;;;;4984977;28;20039;-58
2023/01/04 12:02:36;;;;;;;21.20;3.03;;;12.50;99.90;;;;;;4990870;28;20094;-58
2023/01/04 12:05:24;;;;;;;20.67;3.83;;;12.50;99.90;;;;;;4989914;28;20055;-59
2023/01/04 12:07:58;;;;;;;25.27;4.95;;;12.70;99.90;;;;;;4984157;28;20387;-59
2023/01/04 12:10:26;;;;;;;18.00;2.70;;;12.80;99.90;;;;;;4982677;28;21004;-59
2023/01/04 12:12:58;;;;;;;19.13;2.50;;;12.90;99.90;;;;;;4985098;28;20073;-60
2023/01/04 12:16:11;;;;;;;22.27;2.38;;;12.90;99.90;;;;;;4998382;28;20046;-59
2023/01/04 12:18:41;;;;;;;6.32;1.90;;;12.90;99.90;;;;;;4985650;28;20047;-58
2023/01/04 12:21:25;;;;;;;10.88;1.38;;;12.70;99.90;;;;;;4990658;28;20046;-59
2023/01/04 12:23:54;;;;;;;10.45;1.80;;;12.60;99.90;;;;;;4989169;28;20050;-58
2023/01/04 12:26:22;;;;;;;10.60;1.83;;;12.60;99.90;;;;;;4989436;28;20062;-58
2023/01/04 12:29:11;;;;;;;7.25;1.40;;;12.60;99.90;;;;;;4999206;28;20061;-57
2023/01/04 12:31:39;;;;;;;5.43;0.95;;;12.50;99.90;;;;;;4990369;28;20061;-57
2023/01/04 12:34:12;;;;;;;8.73;2.33;;;12.50;99.90;;;;;;4999947;28;20046;-57
2023/01/04 12:36:40;;;;;;;8.15;2.10;;;12.50;99.90;;;;;;5009838;28;20057;-59
2023/01/04 12:39:13;;;;;;;6.53;1.23;;;12.80;99.90;;;;;;4997885;28;20053;-64
2023/01/04 12:42:00;;;;;;;11.07;2.50;;;13.30;99.90;;;;;;4990591;28;20038;-59
2023/01/04 12:44:42;;;;;;;9.73;1.88;;;13.90;99.90;;;;;;4998681;28;20052;-58
2023/01/04 12:50:07;;;;;;;8.23;1.25;;;14.70;99.90;;;;;;4990616;28;20054;-59
2023/01/04 12:52:39;;;;;;;9.82;1.65;;;14.80;99.90;;;;;;4989708;28;20042;-58
2023/01/04 12:55:32;;;;;;;10.98;3.63;;;14.80;99.90;;;;;;4956387;28;20058;-59
2023/01/04 12:59:02;;;;;;;18.92;2.85;;;14.50;99.90;;;;;;4979741;28;20049;-57
2023/01/04 13:02:16;;;;;;;13.55;2.88;;;14.20;99.90;;;;;;4970161;28;20066;-59
2023/01/04 13:04:44;;;;;;;6.65;1.60;;;13.70;99.90;;;;;;4997042;28;20042;-59
2023/01/04 13:07:21;;;;;;;10.23;1.90;;;13.50;99.90;;;;;;4990192;28;20054;-58
2023/01/04 13:10:39;;;;;;;4.80;1.88;;;13.30;99.90;;;;;;4990032;28;20053;-57
2023/01/04 13:13:23;;;;;;;10.13;1.80;;;13.10;99.90;;;;;;5003479;28;20082;-59
2023/01/04 13:16:08;;;;;;;7.88;1.42;;;12.90;99.90;;;;;;4988967;28;20042;-58
2023/01/04 13:18:49;;;;;;;9.23;1.23;;;12.80;99.90;;;;;;4989325;28;20065;-59
2023/01/04 13:21:26;;;;;;;6.32;0.90;;;12.70;99.90;;;;;;4986537;28;20054;-59
2023/01/04 13:24:01;;;;;;;9.57;1.23;;;12.60;99.90;;;;;;4982864;28;20470;-59
2023/01/04 13:26:44;;;;;;;6.70;1.00;;;12.60;99.90;;;;;;4988616;28;20434;-58
2023/01/04 13:29:27;;;;;;;8.05;2.25;;;12.60;99.90;;;;;;5004465;28;20038;-60
2023/01/04 13:32:07;;;;;;;7.05;1.77;;;12.60;99.90;;;;;;5001554;28;20069;-59
2023/01/04 13:34:40;;;;;;;5.05;0.82;;;12.60;99.90;;;;;;4989616;28;20050;-59
2023/01/04 13:37:10;;;;;;;7.63;1.20;;;12.50;99.90;;;;;;4986932;28;20055;-58
2023/01/04 13:39:59;;;;;;;5.78;1.20;;;12.50;99.90;;;;;;4987966;28;20046;-60
2023/01/04 13:42:33;;;;;;;7.95;1.17;;;12.40;99.90;;;;;;4988124;28;20054;-59
2023/01/04 13:45:25;;;;;;;7.03;1.10;;;12.40;99.90;;;;;;4988079;28;20053;-57
2023/01/04 13:47:59;;;;;;;5.45;1.13;;;12.40;99.90;;;;;;4986747;28;20057;-57
2023/01/04 13:50:34;;;;;;;7.95;1.67;;;12.30;99.90;;;;;;4973984;28;20047;-64
2023/01/04 13:53:03;;;;;;;13.77;1.15;;;12.30;99.90;;;;;;4992222;28;20046;-60
2023/01/04 13:55:37;;;;;;;6.82;0.90;;;12.20;99.90;;;;;;4993287;28;20043;-62
2023/01/04 13:58:26;;;;;;;8.82;1.50;;;12.20;99.90;;;;;;4989947;28;20053;-61
2023/01/04 14:01:13;;;;;;;9.55;1.33;;;12.20;99.90;;;;;;4977192;28;20074;-59
2023/01/04 14:03:43;;;;;;;8.27;1.38;;;12.20;99.90;;;;;;4989088;28;20057;-59
2023/01/04 14:06:16;;;;;;;8.55;2.13;;;12.20;99.90;;;;;;5004859;28;20042;-61
2023/01/04 14:08:50;;;;;;;10.10;1.20;;;12.20;99.90;;;;;;4989736;28;20046;-61
2023/01/04 14:14:48;;;;;;;6.90;1.45;;;12.20;99.90;;;;;;4999383;28;20065;-60
2023/01/04 14:17:30;;;;;;;8.15;1.40;;;12.20;99.90;;;;;;4988016;28;20031;-62
2023/01/04 14:20:18;;;;;;;10.38;1.20;;;12.10;99.90;;;;;;4988259;28;20057;-62